sensor_id;sensor_type;location;lat;lon;timestamp;temperature;humidity
75164;HTU21D;63746;45.402;37.922;2023-06-19T00:00:11;23.22;66.45
75164;HTU21D;63746;45.402;37.922;2023-06-19T00:02:43;23.22;66.44
75164;HTU21D;63746;45.402;37.922;2023-06-19T00:05:09;23.18;66.42
75164;HTU21D;63746;45.402;37.922;2023-06-19T00:07:36;23.15;66.43
75164;HTU21D;63746;45.402;37.922;2023-06-19T00:10:03;23.11;66.43
75164;HTU21D;63746;45.402;37.922;2023-06-19T00:12:29;23.07;66.47
75164;HTU21D;63746;45.402;37.922;2023-06-19T00:14:55;23.01;66.55
75164;HTU21D;63746;45.402;37.922;2023-06-19T00:17:21;23.00;66.62
75164;HTU21D;63746;45.402;37.922;2023-06-19T00:19:47;22.98;66.65
75164;HTU21D;63746;45.402;37.922;2023-06-19T00:22:14;22.99;66.68
75164;HTU21D;63746;45.402;37.922;2023-06-19T00:24:40;22.98;66.69
75164;HTU21D;63746;45.402;37.922;2023-06-19T00:27:06;22.98;66.69
75164;HTU21D;63746;45.402;37.922;2023-06-19T00:29:32;22.99;66.68
75164;HTU21D;63746;45.402;37.922;2023-06-19T00:31:59;22.98;66.65
75164;HTU21D;63746;45.402;37.922;2023-06-19T00:34:25;22.98;66.63
75164;HTU21D;63746;45.402;37.922;2023-06-19T00:36:54;22.98;66.67
75164;HTU21D;63746;45.402;37.922;2023-06-19T00:39:22;22.98;66.63
75164;HTU21D;63746;45.402;37.922;2023-06-19T00:41:51;22.98;66.68
75164;HTU21D;63746;45.402;37.922;2023-06-19T00:44:17;23.00;66.64
75164;HTU21D;63746;45.402;37.922;2023-06-19T00:46:43;22.98;66.62
75164;HTU21D;63746;45.402;37.922;2023-06-19T00:49:10;22.98;66.59
75164;HTU21D;63746;45.402;37.922;2023-06-19T00:51:37;22.97;66.57
75164;HTU21D;63746;45.402;37.922;2023-06-19T00:54:04;22.96;66.58
75164;HTU21D;63746;45.402;37.922;2023-06-19T00:56:31;22.94;66.60
75164;HTU21D;63746;45.402;37.922;2023-06-19T00:58:57;22.93;66.62
75164;HTU21D;63746;45.402;37.922;2023-06-19T01:01:23;22.94;66.65
75164;HTU21D;63746;45.402;37.922;2023-06-19T01:03:50;22.92;66.65
75164;HTU21D;63746;45.402;37.922;2023-06-19T01:06:23;22.93;66.75
75164;HTU21D;63746;45.402;37.922;2023-06-19T01:09:01;22.92;66.81
75164;HTU21D;63746;45.402;37.922;2023-06-19T01:11:44;22.91;66.84
75164;HTU21D;63746;45.402;37.922;2023-06-19T01:14:18;22.91;66.81
75164;HTU21D;63746;45.402;37.922;2023-06-19T01:16:45;22.90;66.72
75164;HTU21D;63746;45.402;37.922;2023-06-19T01:19:18;22.90;66.77
75164;HTU21D;63746;45.402;37.922;2023-06-19T01:21:45;22.90;66.75
75164;HTU21D;63746;45.402;37.922;2023-06-19T01:24:11;22.87;66.73
75164;HTU21D;63746;45.402;37.922;2023-06-19T01:26:39;22.88;66.75
75164;HTU21D;63746;45.402;37.922;2023-06-19T01:29:05;22.87;66.77
75164;HTU21D;63746;45.402;37.922;2023-06-19T01:31:42;22.87;66.85
75164;HTU21D;63746;45.402;37.922;2023-06-19T01:34:12;22.87;66.78
75164;HTU21D;63746;45.402;37.922;2023-06-19T01:36:39;22.87;66.77
75164;HTU21D;63746;45.402;37.922;2023-06-19T01:39:06;22.86;66.77
75164;HTU21D;63746;45.402;37.922;2023-06-19T01:41:33;22.86;66.78
75164;HTU21D;63746;45.402;37.922;2023-06-19T01:43:59;22.84;66.78
75164;HTU21D;63746;45.402;37.922;2023-06-19T01:46:26;22.82;66.78
75164;HTU21D;63746;45.402;37.922;2023-06-19T01:48:52;22.79;66.79
75164;HTU21D;63746;45.402;37.922;2023-06-19T01:51:19;22.77;66.79
75164;HTU21D;63746;45.402;37.922;2023-06-19T01:53:45;22.72;66.85
75164;HTU21D;63746;45.402;37.922;2023-06-19T01:56:11;22.70;66.88
75164;HTU21D;63746;45.402;37.922;2023-06-19T01:58:37;22.67;66.94
75164;HTU21D;63746;45.402;37.922;2023-06-19T02:01:03;22.68;66.98
75164;HTU21D;63746;45.402;37.922;2023-06-19T02:03:30;22.66;66.98
75164;HTU21D;63746;45.402;37.922;2023-06-19T02:05:56;22.64;66.98
75164;HTU21D;63746;45.402;37.922;2023-06-19T02:08:22;22.63;67.01
75164;HTU21D;63746;45.402;37.922;2023-06-19T02:10:47;22.64;67.04
75164;HTU21D;63746;45.402;37.922;2023-06-19T02:13:13;22.62;67.01
75164;HTU21D;63746;45.402;37.922;2023-06-19T02:15:39;22.60;67.00
75164;HTU21D;63746;45.402;37.922;2023-06-19T02:18:06;22.55;67.01
75164;HTU21D;63746;45.402;37.922;2023-06-19T02:20:33;22.54;67.07
75164;HTU21D;63746;45.402;37.922;2023-06-19T02:22:59;22.53;67.09
75164;HTU21D;63746;45.402;37.922;2023-06-19T02:25:25;22.49;67.10
75164;HTU21D;63746;45.402;37.922;2023-06-19T02:27:51;22.49;67.14
75164;HTU21D;63746;45.402;37.922;2023-06-19T02:30:17;22.48;67.15
75164;HTU21D;63746;45.402;37.922;2023-06-19T02:32:43;22.46;67.19
75164;HTU21D;63746;45.402;37.922;2023-06-19T02:35:10;22.43;67.22
75164;HTU21D;63746;45.402;37.922;2023-06-19T02:37:37;22.42;67.23
75164;HTU21D;63746;45.402;37.922;2023-06-19T02:40:04;22.42;67.24
75164;HTU21D;63746;45.402;37.922;2023-06-19T02:42:32;22.39;67.25
75164;HTU21D;63746;45.402;37.922;2023-06-19T02:44:58;22.39;67.27
75164;HTU21D;63746;45.402;37.922;2023-06-19T02:47:30;22.38;67.29
75164;HTU21D;63746;45.402;37.922;2023-06-19T02:50:00;22.38;67.38
75164;HTU21D;63746;45.402;37.922;2023-06-19T02:52:27;22.40;67.36
75164;HTU21D;63746;45.402;37.922;2023-06-19T02:54:53;22.42;67.38
75164;HTU21D;63746;45.402;37.922;2023-06-19T02:57:19;22.43;67.36
75164;HTU21D;63746;45.402;37.922;2023-06-19T02:59:45;22.44;67.35
75164;HTU21D;63746;45.402;37.922;2023-06-19T03:02:14;22.44;67.35
75164;HTU21D;63746;45.402;37.922;2023-06-19T03:04:42;22.49;67.33
75164;HTU21D;63746;45.402;37.922;2023-06-19T03:07:09;22.50;67.30
75164;HTU21D;63746;45.402;37.922;2023-06-19T03:09:36;22.50;67.27
75164;HTU21D;63746;45.402;37.922;2023-06-19T03:12:02;22.48;67.24
75164;HTU21D;63746;45.402;37.922;2023-06-19T03:14:29;22.49;67.24
75164;HTU21D;63746;45.402;37.922;2023-06-19T03:16:55;22.48;67.23
75164;HTU21D;63746;45.402;37.922;2023-06-19T03:19:22;22.47;67.21
75164;HTU21D;63746;45.402;37.922;2023-06-19T03:21:48;22.44;67.21
75164;HTU21D;63746;45.402;37.922;2023-06-19T03:24:14;22.43;67.23
75164;HTU21D;63746;45.402;37.922;2023-06-19T03:26:41;22.41;67.22
75164;HTU21D;63746;45.402;37.922;2023-06-19T03:29:07;22.40;67.23
75164;HTU21D;63746;45.402;37.922;2023-06-19T03:31:51;22.39;67.23
75164;HTU21D;63746;45.402;37.922;2023-06-19T03:34:18;22.38;67.26
75164;HTU21D;63746;45.402;37.922;2023-06-19T03:36:44;22.37;67.27
75164;HTU21D;63746;45.402;37.922;2023-06-19T03:39:10;22.37;67.29
75164;HTU21D;63746;45.402;37.922;2023-06-19T03:41:37;22.37;67.31
75164;HTU21D;63746;45.402;37.922;2023-06-19T03:44:03;22.39;67.32
75164;HTU21D;63746;45.402;37.922;2023-06-19T03:46:29;22.40;67.36
75164;HTU21D;63746;45.402;37.922;2023-06-19T03:48:56;22.43;67.38
75164;HTU21D;63746;45.402;37.922;2023-06-19T03:51:22;22.47;67.37
75164;HTU21D;63746;45.402;37.922;2023-06-19T03:53:48;22.50;67.35
75164;HTU21D;63746;45.402;37.922;2023-06-19T03:56:16;22.54;67.32
75164;HTU21D;63746;45.402;37.922;2023-06-19T03:58:42;22.57;67.30
75164;HTU21D;63746;45.402;37.922;2023-06-19T04:01:08;22.60;67.24
75164;HTU21D;63746;45.402;37.922;2023-06-19T04:03:34;22.62;67.22
75164;HTU21D;63746;45.402;37.922;2023-06-19T04:06:01;22.63;67.20
75164;HTU21D;63746;45.402;37.922;2023-06-19T04:08:27;22.65;67.18
75164;HTU21D;63746;45.402;37.922;2023-06-19T04:10:53;22.66;67.19
75164;HTU21D;63746;45.402;37.922;2023-06-19T04:13:19;22.68;67.13
75164;HTU21D;63746;45.402;37.922;2023-06-19T04:15:45;22.67;67.12
75164;HTU21D;63746;45.402;37.922;2023-06-19T04:18:11;22.67;67.14
75164;HTU21D;63746;45.402;37.922;2023-06-19T04:20:37;22.69;67.15
75164;HTU21D;63746;45.402;37.922;2023-06-19T04:23:03;22.70;67.10
75164;HTU21D;63746;45.402;37.922;2023-06-19T04:25:29;22.69;67.04
75164;HTU21D;63746;45.402;37.922;2023-06-19T04:27:55;22.67;67.06
75164;HTU21D;63746;45.402;37.922;2023-06-19T04:30:21;22.67;67.14
75164;HTU21D;63746;45.402;37.922;2023-06-19T04:32:47;22.71;67.16
75164;HTU21D;63746;45.402;37.922;2023-06-19T04:35:13;22.72;67.15
75164;HTU21D;63746;45.402;37.922;2023-06-19T04:37:39;22.76;67.17
75164;HTU21D;63746;45.402;37.922;2023-06-19T04:40:06;22.80;67.15
75164;HTU21D;63746;45.402;37.922;2023-06-19T04:42:33;22.82;67.15
75164;HTU21D;63746;45.402;37.922;2023-06-19T04:44:59;22.86;67.14
75164;HTU21D;63746;45.402;37.922;2023-06-19T04:47:25;22.91;67.13
75164;HTU21D;63746;45.402;37.922;2023-06-19T04:49:51;22.95;67.13
75164;HTU21D;63746;45.402;37.922;2023-06-19T04:52:17;23.00;67.08
75164;HTU21D;63746;45.402;37.922;2023-06-19T04:54:44;23.05;67.04
75164;HTU21D;63746;45.402;37.922;2023-06-19T04:57:10;23.08;67.01
75164;HTU21D;63746;45.402;37.922;2023-06-19T04:59:36;23.12;67.02
75164;HTU21D;63746;45.402;37.922;2023-06-19T05:02:02;23.17;67.02
75164;HTU21D;63746;45.402;37.922;2023-06-19T05:04:28;23.25;67.00
75164;HTU21D;63746;45.402;37.922;2023-06-19T05:06:58;23.28;66.91
75164;HTU21D;63746;45.402;37.922;2023-06-19T05:09:24;23.31;66.85
75164;HTU21D;63746;45.402;37.922;2023-06-19T05:11:50;23.35;66.84
75164;HTU21D;63746;45.402;37.922;2023-06-19T05:14:16;23.38;66.82
75164;HTU21D;63746;45.402;37.922;2023-06-19T05:16:43;23.40;66.79
75164;HTU21D;63746;45.402;37.922;2023-06-19T05:19:09;23.45;66.78
75164;HTU21D;63746;45.402;37.922;2023-06-19T05:21:35;23.45;66.72
75164;HTU21D;63746;45.402;37.922;2023-06-19T05:24:01;23.49;66.69
75164;HTU21D;63746;45.402;37.922;2023-06-19T05:26:27;23.50;66.66
75164;HTU21D;63746;45.402;37.922;2023-06-19T05:28:53;23.52;66.66
75164;HTU21D;63746;45.402;37.922;2023-06-19T05:31:19;23.54;66.72
75164;HTU21D;63746;45.402;37.922;2023-06-19T05:33:45;23.58;66.73
75164;HTU21D;63746;45.402;37.922;2023-06-19T05:36:11;23.62;66.73
75164;HTU21D;63746;45.402;37.922;2023-06-19T05:38:37;23.72;66.75
75164;HTU21D;63746;45.402;37.922;2023-06-19T05:41:03;23.79;66.78
75164;HTU21D;63746;45.402;37.922;2023-06-19T05:43:29;23.90;66.80
75164;HTU21D;63746;45.402;37.922;2023-06-19T05:45:55;23.99;66.62
75164;HTU21D;63746;45.402;37.922;2023-06-19T05:48:21;24.05;66.53
75164;HTU21D;63746;45.402;37.922;2023-06-19T05:50:47;24.13;66.56
75164;HTU21D;63746;45.402;37.922;2023-06-19T05:53:13;24.24;66.53
75164;HTU21D;63746;45.402;37.922;2023-06-19T05:55:39;24.32;66.51
75164;HTU21D;63746;45.402;37.922;2023-06-19T05:58:05;24.45;66.52
75164;HTU21D;63746;45.402;37.922;2023-06-19T06:00:31;24.59;66.48
75164;HTU21D;63746;45.402;37.922;2023-06-19T06:02:58;24.74;66.39
75164;HTU21D;63746;45.402;37.922;2023-06-19T06:05:27;24.89;66.26
75164;HTU21D;63746;45.402;37.922;2023-06-19T06:07:54;25.03;66.17
75164;HTU21D;63746;45.402;37.922;2023-06-19T06:10:21;25.17;66.02
75164;HTU21D;63746;45.402;37.922;2023-06-19T06:12:51;25.27;65.89
75164;HTU21D;63746;45.402;37.922;2023-06-19T06:15:17;25.39;65.87
75164;HTU21D;63746;45.402;37.922;2023-06-19T06:17:43;25.49;65.77
75164;HTU21D;63746;45.402;37.922;2023-06-19T06:20:10;25.60;65.65
75164;HTU21D;63746;45.402;37.922;2023-06-19T06:22:39;25.65;65.52
75164;HTU21D;63746;45.402;37.922;2023-06-19T06:25:06;25.71;65.50
75164;HTU21D;63746;45.402;37.922;2023-06-19T06:27:32;25.78;65.46
75164;HTU21D;63746;45.402;37.922;2023-06-19T06:29:58;25.82;65.34
75164;HTU21D;63746;45.402;37.922;2023-06-19T06:32:24;25.84;65.27
75164;HTU21D;63746;45.402;37.922;2023-06-19T06:34:51;25.84;65.20
75164;HTU21D;63746;45.402;37.922;2023-06-19T06:37:17;25.88;65.30
75164;HTU21D;63746;45.402;37.922;2023-06-19T06:39:48;25.92;65.27
75164;HTU21D;63746;45.402;37.922;2023-06-19T06:42:18;25.97;65.27
75164;HTU21D;63746;45.402;37.922;2023-06-19T06:44:44;26.04;65.23
75164;HTU21D;63746;45.402;37.922;2023-06-19T06:47:10;26.12;65.31
75164;HTU21D;63746;45.402;37.922;2023-06-19T06:49:36;26.23;65.25
75164;HTU21D;63746;45.402;37.922;2023-06-19T06:52:06;26.32;65.16
75164;HTU21D;63746;45.402;37.922;2023-06-19T06:54:32;26.43;65.14
75164;HTU21D;63746;45.402;37.922;2023-06-19T06:56:58;26.55;65.04
75164;HTU21D;63746;45.402;37.922;2023-06-19T06:59:26;26.67;64.97
75164;HTU21D;63746;45.402;37.922;2023-06-19T07:01:55;26.76;64.85
75164;HTU21D;63746;45.402;37.922;2023-06-19T07:04:22;26.85;64.78
75164;HTU21D;63746;45.402;37.922;2023-06-19T07:06:48;26.92;64.60
75164;HTU21D;63746;45.402;37.922;2023-06-19T07:09:14;26.94;64.50
75164;HTU21D;63746;45.402;37.922;2023-06-19T07:11:40;26.95;64.43
75164;HTU21D;63746;45.402;37.922;2023-06-19T07:14:07;26.97;64.47
75164;HTU21D;63746;45.402;37.922;2023-06-19T07:16:32;26.97;64.39
75164;HTU21D;63746;45.402;37.922;2023-06-19T07:18:58;26.95;64.42
75164;HTU21D;63746;45.402;37.922;2023-06-19T07:49:36;27.54;64.09
75164;HTU21D;63746;45.402;37.922;2023-06-19T07:52:03;27.61;64.14
75164;HTU21D;63746;45.402;37.922;2023-06-19T07:54:29;27.71;64.06
75164;HTU21D;63746;45.402;37.922;2023-06-19T07:56:55;27.81;64.04
75164;HTU21D;63746;45.402;37.922;2023-06-19T07:59:21;27.93;63.89
75164;HTU21D;63746;45.402;37.922;2023-06-19T08:01:48;28.03;63.85
75164;HTU21D;63746;45.402;37.922;2023-06-19T08:04:14;28.14;63.76
75164;HTU21D;63746;45.402;37.922;2023-06-19T08:06:40;28.25;63.70
75164;HTU21D;63746;45.402;37.922;2023-06-19T08:09:06;28.35;63.56
75164;HTU21D;63746;45.402;37.922;2023-06-19T08:11:32;28.46;63.37
75164;HTU21D;63746;45.402;37.922;2023-06-19T08:13:58;28.54;63.34
75164;HTU21D;63746;45.402;37.922;2023-06-19T08:16:25;28.61;63.15
75164;HTU21D;63746;45.402;37.922;2023-06-19T08:18:51;28.69;63.16
75164;HTU21D;63746;45.402;37.922;2023-06-19T08:21:17;28.74;63.11
75164;HTU21D;63746;45.402;37.922;2023-06-19T08:23:43;28.82;62.98
75164;HTU21D;63746;45.402;37.922;2023-06-19T08:26:10;28.85;62.74
75164;HTU21D;63746;45.402;37.922;2023-06-19T08:28:37;28.86;62.66
75164;HTU21D;63746;45.402;37.922;2023-06-19T08:31:03;28.89;62.75
75164;HTU21D;63746;45.402;37.922;2023-06-19T08:33:29;28.92;62.74
75164;HTU21D;63746;45.402;37.922;2023-06-19T08:35:55;28.97;62.69
75164;HTU21D;63746;45.402;37.922;2023-06-19T08:38:21;29.00;62.67
75164;HTU21D;63746;45.402;37.922;2023-06-19T08:40:47;29.04;62.59
75164;HTU21D;63746;45.402;37.922;2023-06-19T08:43:13;29.08;62.58
75164;HTU21D;63746;45.402;37.922;2023-06-19T08:45:40;29.12;62.53
75164;HTU21D;63746;45.402;37.922;2023-06-19T08:48:06;29.18;62.49
75164;HTU21D;63746;45.402;37.922;2023-06-19T08:50:39;29.24;62.47
75164;HTU21D;63746;45.402;37.922;2023-06-19T08:53:05;29.29;62.44
75164;HTU21D;63746;45.402;37.922;2023-06-19T08:55:31;29.34;62.29
75164;HTU21D;63746;45.402;37.922;2023-06-19T08:57:57;29.41;62.32
75164;HTU21D;63746;45.402;37.922;2023-06-19T09:00:27;29.48;61.99
75164;HTU21D;63746;45.402;37.922;2023-06-19T09:03:02;29.53;61.49
75164;HTU21D;63746;45.402;37.922;2023-06-19T09:05:29;29.59;61.95
75164;HTU21D;63746;45.402;37.922;2023-06-19T09:07:59;29.60;61.88
75164;HTU21D;63746;45.402;37.922;2023-06-19T09:10:33;29.61;61.86
75164;HTU21D;63746;45.402;37.922;2023-06-19T09:13:03;29.61;61.40
75164;HTU21D;63746;45.402;37.922;2023-06-19T09:15:39;29.65;61.75
75164;HTU21D;63746;45.402;37.922;2023-06-19T09:18:07;29.67;61.71
75164;HTU21D;63746;45.402;37.922;2023-06-19T09:20:37;29.72;61.71
75164;HTU21D;63746;45.402;37.922;2023-06-19T09:23:04;29.73;61.70
75164;HTU21D;63746;45.402;37.922;2023-06-19T09:25:30;29.76;61.73
75164;HTU21D;63746;45.402;37.922;2023-06-19T09:27:57;29.82;61.71
75164;HTU21D;63746;45.402;37.922;2023-06-19T09:30:23;29.87;61.69
75164;HTU21D;63746;45.402;37.922;2023-06-19T09:32:49;29.90;61.59
75164;HTU21D;63746;45.402;37.922;2023-06-19T09:35:15;29.96;61.52
75164;HTU21D;63746;45.402;37.922;2023-06-19T09:37:42;30.01;61.46
75164;HTU21D;63746;45.402;37.922;2023-06-19T09:40:09;30.06;61.43
75164;HTU21D;63746;45.402;37.922;2023-06-19T09:42:40;30.15;61.08
75164;HTU21D;63746;45.402;37.922;2023-06-19T09:45:13;30.20;61.22
75164;HTU21D;63746;45.402;37.922;2023-06-19T09:47:46;30.24;61.17
75164;HTU21D;63746;45.402;37.922;2023-06-19T09:50:14;30.28;61.00
75164;HTU21D;63746;45.402;37.922;2023-06-19T09:52:41;30.30;60.95
75164;HTU21D;63746;45.402;37.922;2023-06-19T09:55:09;30.31;61.02
75164;HTU21D;63746;45.402;37.922;2023-06-19T09:57:39;30.35;60.99
75164;HTU21D;63746;45.402;37.922;2023-06-19T10:00:07;30.37;60.84
75164;HTU21D;63746;45.402;37.922;2023-06-19T10:02:48;30.40;60.14
75164;HTU21D;63746;45.402;37.922;2023-06-19T10:05:14;30.45;60.94
75164;HTU21D;63746;45.402;37.922;2023-06-19T10:07:42;30.51;60.88
75164;HTU21D;63746;45.402;37.922;2023-06-19T10:10:23;30.57;60.73
75164;HTU21D;63746;45.402;37.922;2023-06-19T10:12:49;30.56;60.67
75164;HTU21D;63746;45.402;37.922;2023-06-19T10:17:52;30.54;60.56
75164;HTU21D;63746;45.402;37.922;2023-06-19T10:23:21;30.37;59.87
75164;HTU21D;63746;45.402;37.922;2023-06-19T10:25:58;30.33;59.82
75164;HTU21D;63746;45.402;37.922;2023-06-19T10:28:30;30.30;60.31
75164;HTU21D;63746;45.402;37.922;2023-06-19T10:31:04;30.28;60.70
75164;HTU21D;63746;45.402;37.922;2023-06-19T10:33:32;30.33;60.78
75164;HTU21D;63746;45.402;37.922;2023-06-19T10:35:59;30.41;57.34
75164;HTU21D;63746;45.402;37.922;2023-06-19T10:38:26;30.45;60.60
75164;HTU21D;63746;45.402;37.922;2023-06-19T10:40:52;30.46;60.56
75164;HTU21D;63746;45.402;37.922;2023-06-19T10:43:22;30.46;60.18
75164;HTU21D;63746;45.402;37.922;2023-06-19T10:45:53;30.47;60.29
75164;HTU21D;63746;45.402;37.922;2023-06-19T10:48:24;30.48;60.03
75164;HTU21D;63746;45.402;37.922;2023-06-19T10:50:50;30.49;60.38
75164;HTU21D;63746;45.402;37.922;2023-06-19T10:53:45;30.48;58.77
75164;HTU21D;63746;45.402;37.922;2023-06-19T10:56:11;30.45;60.40
75164;HTU21D;63746;45.402;37.922;2023-06-19T10:58:37;30.45;60.45
75164;HTU21D;63746;45.402;37.922;2023-06-19T11:01:03;30.46;60.33
75164;HTU21D;63746;45.402;37.922;2023-06-19T11:03:29;30.41;60.29
75164;HTU21D;63746;45.402;37.922;2023-06-19T11:05:57;30.37;60.31
75164;HTU21D;63746;45.402;37.922;2023-06-19T11:08:23;30.35;60.34
75164;HTU21D;63746;45.402;37.922;2023-06-19T11:10:50;30.34;60.35
75164;HTU21D;63746;45.402;37.922;2023-06-19T11:13:18;30.32;60.24
75164;HTU21D;63746;45.402;37.922;2023-06-19T11:15:45;30.30;60.26
75164;HTU21D;63746;45.402;37.922;2023-06-19T11:18:11;30.26;60.28
75164;HTU21D;63746;45.402;37.922;2023-06-19T11:20:51;30.23;59.62
75164;HTU21D;63746;45.402;37.922;2023-06-19T11:23:27;30.24;60.28
75164;HTU21D;63746;45.402;37.922;2023-06-19T11:25:53;30.21;60.31
75164;HTU21D;63746;45.402;37.922;2023-06-19T11:28:18;30.22;60.31
75164;HTU21D;63746;45.402;37.922;2023-06-19T11:30:48;30.22;60.21
75164;HTU21D;63746;45.402;37.922;2023-06-19T11:33:19;30.18;59.93
75164;HTU21D;63746;45.402;37.922;2023-06-19T11:35:53;30.12;59.83
75164;HTU21D;63746;45.402;37.922;2023-06-19T11:38:25;30.06;59.98
75164;HTU21D;63746;45.402;37.922;2023-06-19T11:40:52;29.97;60.15
75164;HTU21D;63746;45.402;37.922;2023-06-19T11:43:29;29.91;59.28
75164;HTU21D;63746;45.402;37.922;2023-06-19T11:46:06;29.83;59.61
75164;HTU21D;63746;45.402;37.922;2023-06-19T11:48:37;29.77;59.96
75164;HTU21D;63746;45.402;37.922;2023-06-19T11:51:03;29.71;60.29
75164;HTU21D;63746;45.402;37.922;2023-06-19T11:53:29;29.68;60.37
75164;HTU21D;63746;45.402;37.922;2023-06-19T11:55:55;29.66;60.38
75164;HTU21D;63746;45.402;37.922;2023-06-19T11:58:22;29.64;60.38
75164;HTU21D;63746;45.402;37.922;2023-06-19T12:00:48;29.64;60.33
75164;HTU21D;63746;45.402;37.922;2023-06-19T12:03:14;29.60;60.33
75164;HTU21D;63746;45.402;37.922;2023-06-19T12:05:40;29.60;60.33
75164;HTU21D;63746;45.402;37.922;2023-06-19T12:08:06;29.58;60.36
75164;HTU21D;63746;45.402;37.922;2023-06-19T12:10:33;29.57;60.28
75164;HTU21D;63746;45.402;37.922;2023-06-19T12:13:00;29.54;60.26
75164;HTU21D;63746;45.402;37.922;2023-06-19T12:15:26;29.50;60.29
75164;HTU21D;63746;45.402;37.922;2023-06-19T12:17:52;29.47;60.32
75164;HTU21D;63746;45.402;37.922;2023-06-19T12:20:19;29.46;60.32
75164;HTU21D;63746;45.402;37.922;2023-06-19T12:22:45;29.45;60.34
75164;HTU21D;63746;45.402;37.922;2023-06-19T12:25:11;29.46;60.32
75164;HTU21D;63746;45.402;37.922;2023-06-19T12:27:40;29.45;60.18
75164;HTU21D;63746;45.402;37.922;2023-06-19T12:30:07;29.45;60.30
75164;HTU21D;63746;45.402;37.922;2023-06-19T12:32:33;29.45;60.30
75164;HTU21D;63746;45.402;37.922;2023-06-19T12:34:59;29.46;60.28
75164;HTU21D;63746;45.402;37.922;2023-06-19T12:37:25;29.46;60.24
75164;HTU21D;63746;45.402;37.922;2023-06-19T12:39:51;29.44;60.20
75164;HTU21D;63746;45.402;37.922;2023-06-19T12:42:17;29.44;60.19
75164;HTU21D;63746;45.402;37.922;2023-06-19T12:44:43;29.41;60.18
75164;HTU21D;63746;45.402;37.922;2023-06-19T12:47:13;29.41;60.16
75164;HTU21D;63746;45.402;37.922;2023-06-19T12:49:39;29.38;60.13
75164;HTU21D;63746;45.402;37.922;2023-06-19T12:52:05;29.35;60.15
75164;HTU21D;63746;45.402;37.922;2023-06-19T12:54:31;29.34;60.12
75164;HTU21D;63746;45.402;37.922;2023-06-19T12:56:57;29.30;60.15
75164;HTU21D;63746;45.402;37.922;2023-06-19T12:59:23;29.28;60.14
75164;HTU21D;63746;45.402;37.922;2023-06-19T13:01:50;29.26;60.18
75164;HTU21D;63746;45.402;37.922;2023-06-19T13:04:16;29.26;60.18
75164;HTU21D;63746;45.402;37.922;2023-06-19T13:06:42;29.23;60.18
75164;HTU21D;63746;45.402;37.922;2023-06-19T13:09:08;29.20;60.21
75164;HTU21D;63746;45.402;37.922;2023-06-19T13:11:34;29.22;60.19
75164;HTU21D;63746;45.402;37.922;2023-06-19T13:14:00;29.19;60.18
75164;HTU21D;63746;45.402;37.922;2023-06-19T13:16:26;29.17;60.14
75164;HTU21D;63746;45.402;37.922;2023-06-19T13:18:52;29.14;60.13
75164;HTU21D;63746;45.402;37.922;2023-06-19T13:21:18;29.11;60.12
75164;HTU21D;63746;45.402;37.922;2023-06-19T13:23:44;29.08;60.15
75164;HTU21D;63746;45.402;37.922;2023-06-19T13:26:10;29.05;60.17
75164;HTU21D;63746;45.402;37.922;2023-06-19T13:28:36;29.04;60.15
75164;HTU21D;63746;45.402;37.922;2023-06-19T13:31:03;29.02;60.15
75164;HTU21D;63746;45.402;37.922;2023-06-19T13:33:29;28.98;60.17
75164;HTU21D;63746;45.402;37.922;2023-06-19T13:35:55;28.95;60.17
75164;HTU21D;63746;45.402;37.922;2023-06-19T13:38:21;28.92;60.18
75164;HTU21D;63746;45.402;37.922;2023-06-19T13:40:47;28.89;60.18
75164;HTU21D;63746;45.402;37.922;2023-06-19T13:43:13;28.86;60.19
75164;HTU21D;63746;45.402;37.922;2023-06-19T13:45:40;28.83;60.19
75164;HTU21D;63746;45.402;37.922;2023-06-19T13:48:06;28.77;60.12
75164;HTU21D;63746;45.402;37.922;2023-06-19T13:50:33;28.64;60.08
75164;HTU21D;63746;45.402;37.922;2023-06-19T13:53:00;28.49;60.10
75164;HTU21D;63746;45.402;37.922;2023-06-19T13:55:26;28.31;60.08
75164;HTU21D;63746;45.402;37.922;2023-06-19T13:57:52;28.05;60.28
75164;HTU21D;63746;45.402;37.922;2023-06-19T14:00:19;27.81;60.46
75164;HTU21D;63746;45.402;37.922;2023-06-19T14:02:45;27.57;60.65
75164;HTU21D;63746;45.402;37.922;2023-06-19T14:05:11;27.37;60.88
75164;HTU21D;63746;45.402;37.922;2023-06-19T14:07:41;27.19;61.02
75164;HTU21D;63746;45.402;37.922;2023-06-19T14:10:08;26.99;59.95
75164;HTU21D;63746;45.402;37.922;2023-06-19T14:12:34;26.80;61.37
75164;HTU21D;63746;45.402;37.922;2023-06-19T14:15:00;26.64;61.50
75164;HTU21D;63746;45.402;37.922;2023-06-19T14:17:26;26.49;61.62
75164;HTU21D;63746;45.402;37.922;2023-06-19T14:19:52;26.32;61.78
75164;HTU21D;63746;45.402;37.922;2023-06-19T14:22:18;26.17;61.90
75164;HTU21D;63746;45.402;37.922;2023-06-19T14:24:44;26.05;62.05
75164;HTU21D;63746;45.402;37.922;2023-06-19T14:27:10;25.97;62.18
75164;HTU21D;63746;45.402;37.922;2023-06-19T14:29:36;25.89;62.21
75164;HTU21D;63746;45.402;37.922;2023-06-19T14:32:02;25.80;62.24
75164;HTU21D;63746;45.402;37.922;2023-06-19T14:34:29;25.73;62.33
75164;HTU21D;63746;45.402;37.922;2023-06-19T14:36:55;25.64;62.40
75164;HTU21D;63746;45.402;37.922;2023-06-19T14:39:21;25.58;62.37
75164;HTU21D;63746;45.402;37.922;2023-06-19T14:41:47;25.47;62.35
75164;HTU21D;63746;45.402;37.922;2023-06-19T14:44:13;25.37;62.38
75164;HTU21D;63746;45.402;37.922;2023-06-19T14:46:39;25.25;62.34
75164;HTU21D;63746;45.402;37.922;2023-06-19T14:49:10;25.17;62.44
75164;HTU21D;63746;45.402;37.922;2023-06-19T14:51:38;25.08;62.52
75164;HTU21D;63746;45.402;37.922;2023-06-19T14:54:05;25.00;62.63
75164;HTU21D;63746;45.402;37.922;2023-06-19T14:56:31;24.94;62.70
75164;HTU21D;63746;45.402;37.922;2023-06-19T14:58:57;24.90;62.73
75164;HTU21D;63746;45.402;37.922;2023-06-19T15:01:23;24.85;62.83
75164;HTU21D;63746;45.402;37.922;2023-06-19T15:03:49;24.83;62.89
75164;HTU21D;63746;45.402;37.922;2023-06-19T15:06:15;24.82;62.89
75164;HTU21D;63746;45.402;37.922;2023-06-19T15:08:41;24.82;62.90
75164;HTU21D;63746;45.402;37.922;2023-06-19T15:11:07;24.80;62.90
75164;HTU21D;63746;45.402;37.922;2023-06-19T15:13:33;24.77;62.87
75164;HTU21D;63746;45.402;37.922;2023-06-19T15:15:59;24.73;62.95
75164;HTU21D;63746;45.402;37.922;2023-06-19T15:18:26;24.72;62.94
75164;HTU21D;63746;45.402;37.922;2023-06-19T15:20:52;24.70;62.96
75164;HTU21D;63746;45.402;37.922;2023-06-19T15:23:19;24.63;62.92
75164;HTU21D;63746;45.402;37.922;2023-06-19T15:25:45;24.56;62.99
75164;HTU21D;63746;45.402;37.922;2023-06-19T15:28:11;24.48;63.09
75164;HTU21D;63746;45.402;37.922;2023-06-19T15:30:37;24.39;63.16
75164;HTU21D;63746;45.402;37.922;2023-06-19T15:33:03;24.32;63.27
75164;HTU21D;63746;45.402;37.922;2023-06-19T15:35:29;24.26;63.30